<?xml version="1.0" encoding="UTF-8" standalone="no" ?>
<gpx xmlns="http://www.topografix.com/GPX/1/1" xmlns:xsi="http://www.w3.org/2001/XMLSchema-instance" xsi:schemaLocation="http://www.topografix.com/GPX/1/1 http://www.topografix.com/GPX/1/1/gpx.xsd" version="1.1" creator="VisuGPX - https://www.visugpx.com">
  <metadata>
    <name>V-S23</name>
  </metadata>
  <trk>
    <name><![CDATA[TOAC Maison]]></name>
    <trkseg>
      <trkpt lat="43.62232" lon="1.4082">
        <ele>131.94174194336</ele>
        <time>2020-05-31T18:11:44.000Z</time>
      </trkpt>
      <trkpt lat="43.6233" lon="1.40821">
        <ele>131.92973327637</ele>
        <time>2020-05-31T18:11:44.016Z</time>
      </trkpt>
      <trkpt lat="43.62317" lon="1.40796">
        <ele>132</ele>
        <time>2020-05-31T18:11:44.035Z</time>
      </trkpt>
      <trkpt lat="43.62267" lon="1.407">
        <ele>131.27857971191</ele>
        <time>2020-05-31T18:11:44.068Z</time>
      </trkpt>
      <trkpt lat="43.62217" lon="1.40606">
        <ele>131.75068664551</ele>
        <time>2020-05-31T18:11:44.115Z</time>
      </trkpt>
      <trkpt lat="43.62216" lon="1.406">
        <ele>131.84666442871</ele>
        <time>2020-05-31T18:11:44.162Z</time>
      </trkpt>
      <trkpt lat="43.62223" lon="1.40579">
        <ele>132.21520996094</ele>
        <time>2020-05-31T18:11:44.212Z</time>
      </trkpt>
      <trkpt lat="43.62225" lon="1.40579">
        <ele>132.19120788574</ele>
        <time>2020-05-31T18:11:44.262Z</time>
      </trkpt>
      <trkpt lat="43.62229" lon="1.40579">
        <ele>132.14321899414</ele>
        <time>2020-05-31T18:11:44.313Z</time>
      </trkpt>
      <trkpt lat="43.62235" lon="1.40574">
        <ele>132.19120788574</ele>
        <time>2020-05-31T18:11:44.365Z</time>
      </trkpt>
      <trkpt lat="43.62237" lon="1.40566">
        <ele>132.35917663574</ele>
        <time>2020-05-31T18:11:44.418Z</time>
      </trkpt>
      <trkpt lat="43.62237" lon="1.40558">
        <ele>132.3807220459</ele>
        <time>2020-05-31T18:11:44.472Z</time>
      </trkpt>
      <trkpt lat="43.62236" lon="1.40554">
        <ele>132.39273071289</ele>
        <time>2020-05-31T18:11:44.526Z</time>
      </trkpt>
      <trkpt lat="43.62239" lon="1.40539">
        <ele>132.35673522949</ele>
        <time>2020-05-31T18:11:44.582Z</time>
      </trkpt>
      <trkpt lat="43.62241" lon="1.40533">
        <ele>132.54243469238</ele>
        <time>2020-05-31T18:11:44.639Z</time>
      </trkpt>
      <trkpt lat="43.62252" lon="1.40524">
        <ele>133.37030029297</ele>
        <time>2020-05-31T18:11:44.698Z</time>
      </trkpt>
      <trkpt lat="43.62267" lon="1.40514">
        <ele>134.39012145996</ele>
        <time>2020-05-31T18:11:44.760Z</time>
      </trkpt>
      <trkpt lat="43.62266" lon="1.40508">
        <ele>134.64208984375</ele>
        <time>2020-05-31T18:11:44.822Z</time>
      </trkpt>
      <trkpt lat="43.62257" lon="1.40466">
        <ele>135.3404083252</ele>
        <time>2020-05-31T18:11:44.890Z</time>
      </trkpt>
      <trkpt lat="43.62241" lon="1.40412">
        <ele>133.66069030762</ele>
        <time>2020-05-31T18:11:44.964Z</time>
      </trkpt>
      <trkpt lat="43.62224" lon="1.40351">
        <ele>132.89450073242</ele>
        <time>2020-05-31T18:11:45.046Z</time>
      </trkpt>
      <trkpt lat="43.62219" lon="1.40327">
        <ele>132.54655456543</ele>
        <time>2020-05-31T18:11:45.131Z</time>
      </trkpt>
      <trkpt lat="43.62217" lon="1.40309">
        <ele>131.57946777344</ele>
        <time>2020-05-31T18:11:45.218Z</time>
      </trkpt>
      <trkpt lat="43.62212" lon="1.40283">
        <ele>128.08805847168</ele>
        <time>2020-05-31T18:11:45.308Z</time>
      </trkpt>
      <trkpt lat="43.62194" lon="1.40224">
        <ele>121.93022918701</ele>
        <time>2020-05-31T18:11:45.405Z</time>
      </trkpt>
      <trkpt lat="43.62162" lon="1.40112">
        <ele>128.26167297363</ele>
        <time>2020-05-31T18:11:45.516Z</time>
      </trkpt>
      <trkpt lat="43.6214" lon="1.40032">
        <ele>137.94068908691</ele>
        <time>2020-05-31T18:11:45.637Z</time>
      </trkpt>
      <trkpt lat="43.62133" lon="1.4">
        <ele>138.10546875</ele>
        <time>2020-05-31T18:11:45.762Z</time>
      </trkpt>
      <trkpt lat="43.62129" lon="1.39968">
        <ele>137.8655090332</ele>
        <time>2020-05-31T18:11:45.891Z</time>
      </trkpt>
      <trkpt lat="43.62122" lon="1.39927">
        <ele>137.62554931641</ele>
        <time>2020-05-31T18:11:46.025Z</time>
      </trkpt>
      <trkpt lat="43.62119" lon="1.39878">
        <ele>137.59298706055</ele>
        <time>2020-05-31T18:11:46.165Z</time>
      </trkpt>
      <trkpt lat="43.62119" lon="1.39839">
        <ele>137.59298706055</ele>
        <time>2020-05-31T18:11:46.309Z</time>
      </trkpt>
      <trkpt lat="43.62123" lon="1.39779">
        <ele>136.81384277344</ele>
        <time>2020-05-31T18:11:46.460Z</time>
      </trkpt>
      <trkpt lat="43.62124" lon="1.39729">
        <ele>137</ele>
        <time>2020-05-31T18:11:46.617Z</time>
      </trkpt>
      <trkpt lat="43.62125" lon="1.39704">
        <ele>137</ele>
        <time>2020-05-31T18:11:46.777Z</time>
      </trkpt>
      <trkpt lat="43.6213" lon="1.39695">
        <ele>137</ele>
        <time>2020-05-31T18:11:46.938Z</time>
      </trkpt>
      <trkpt lat="43.62138" lon="1.397">
        <ele>137</ele>
        <time>2020-05-31T18:11:47.101Z</time>
      </trkpt>
      <trkpt lat="43.62149" lon="1.39699">
        <ele>137</ele>
        <time>2020-05-31T18:11:47.265Z</time>
      </trkpt>
      <trkpt lat="43.62174" lon="1.39696">
        <ele>137.58177185059</ele>
        <time>2020-05-31T18:11:47.433Z</time>
      </trkpt>
      <trkpt lat="43.62182" lon="1.39695">
        <ele>137.79772949219</ele>
        <time>2020-05-31T18:11:47.603Z</time>
      </trkpt>
      <trkpt lat="43.62186" lon="1.39691">
        <ele>137.98233032227</ele>
        <time>2020-05-31T18:11:47.773Z</time>
      </trkpt>
      <trkpt lat="43.62191" lon="1.39685">
        <ele>138.18629455566</ele>
        <time>2020-05-31T18:11:47.945Z</time>
      </trkpt>
      <trkpt lat="43.62194" lon="1.39674">
        <ele>138.48625183105</ele>
        <time>2020-05-31T18:11:48.118Z</time>
      </trkpt>
      <trkpt lat="43.62193" lon="1.39663">
        <ele>138.73820495605</ele>
        <time>2020-05-31T18:11:48.292Z</time>
      </trkpt>
      <trkpt lat="43.62188" lon="1.39653">
        <ele>138.91816711426</ele>
        <time>2020-05-31T18:11:48.468Z</time>
      </trkpt>
      <trkpt lat="43.6218" lon="1.39649">
        <ele>138.85356140137</ele>
        <time>2020-05-31T18:11:48.645Z</time>
      </trkpt>
      <trkpt lat="43.62143" lon="1.39656">
        <ele>137.79772949219</ele>
        <time>2020-05-31T18:11:48.828Z</time>
      </trkpt>
      <trkpt lat="43.62133" lon="1.3966">
        <ele>137.46179199219</ele>
        <time>2020-05-31T18:11:49.013Z</time>
      </trkpt>
      <trkpt lat="43.62127" lon="1.39667">
        <ele>137.14984130859</ele>
        <time>2020-05-31T18:11:49.199Z</time>
      </trkpt>
      <trkpt lat="43.62125" lon="1.39674">
        <ele>137</ele>
        <time>2020-05-31T18:11:49.386Z</time>
      </trkpt>
      <trkpt lat="43.62103" lon="1.39672">
        <ele>137</ele>
        <time>2020-05-31T18:11:49.576Z</time>
      </trkpt>
      <trkpt lat="43.62059" lon="1.39675">
        <ele>139.06549072266</ele>
        <time>2020-05-31T18:11:49.773Z</time>
      </trkpt>
      <trkpt lat="43.61994" lon="1.39679">
        <ele>145.72583007812</ele>
        <time>2020-05-31T18:11:49.981Z</time>
      </trkpt>
      <trkpt lat="43.61949" lon="1.39681">
        <ele>148.24247741699</ele>
        <time>2020-05-31T18:11:50.196Z</time>
      </trkpt>
      <trkpt lat="43.61884" lon="1.39681">
        <ele>151.00856018066</ele>
        <time>2020-05-31T18:11:50.421Z</time>
      </trkpt>
      <trkpt lat="43.61883" lon="1.39678">
        <ele>150.93827819824</ele>
        <time>2020-05-31T18:11:50.647Z</time>
      </trkpt>
      <trkpt lat="43.61881" lon="1.39677">
        <ele>150.98626708984</ele>
        <time>2020-05-31T18:11:50.873Z</time>
      </trkpt>
      <trkpt lat="43.61877" lon="1.39675">
        <ele>151.02056884766</ele>
        <time>2020-05-31T18:11:51.100Z</time>
      </trkpt>
      <trkpt lat="43.6187" lon="1.39677">
        <ele>151.12854003906</ele>
        <time>2020-05-31T18:11:51.328Z</time>
      </trkpt>
      <trkpt lat="43.61868" lon="1.39679">
        <ele>151.17652893066</ele>
        <time>2020-05-31T18:11:51.556Z</time>
      </trkpt>
      <trkpt lat="43.61867" lon="1.3968">
        <ele>151.20053100586</ele>
        <time>2020-05-31T18:11:51.784Z</time>
      </trkpt>
      <trkpt lat="43.61833" lon="1.39682">
        <ele>152.31622314453</ele>
        <time>2020-05-31T18:11:52.018Z</time>
      </trkpt>
      <trkpt lat="43.61757" lon="1.39686">
        <ele>153.81539916992</ele>
        <time>2020-05-31T18:11:52.264Z</time>
      </trkpt>
      <trkpt lat="43.61734" lon="1.39688">
        <ele>153.21549987793</ele>
        <time>2020-05-31T18:11:52.514Z</time>
      </trkpt>
      <trkpt lat="43.61631" lon="1.39696">
        <ele>151.14501953125</ele>
        <time>2020-05-31T18:11:52.780Z</time>
      </trkpt>
      <trkpt lat="43.61582" lon="1.39697">
        <ele>151.40844726562</ele>
        <time>2020-05-31T18:11:53.054Z</time>
      </trkpt>
      <trkpt lat="43.61554" lon="1.39698">
        <ele>150.90902709961</ele>
        <time>2020-05-31T18:11:53.333Z</time>
      </trkpt>
      <trkpt lat="43.61499" lon="1.39699">
        <ele>149.17448425293</ele>
        <time>2020-05-31T18:11:53.620Z</time>
      </trkpt>
      <trkpt lat="43.61457" lon="1.397">
        <ele>149.8578338623</ele>
        <time>2020-05-31T18:11:53.914Z</time>
      </trkpt>
      <trkpt lat="43.61439" lon="1.39707">
        <ele>150.20576477051</ele>
        <time>2020-05-31T18:11:54.211Z</time>
      </trkpt>
      <trkpt lat="43.61426" lon="1.39717">
        <ele>150.3977355957</ele>
        <time>2020-05-31T18:11:54.511Z</time>
      </trkpt>
      <trkpt lat="43.61422" lon="1.39722">
        <ele>150.4337310791</ele>
        <time>2020-05-31T18:11:54.811Z</time>
      </trkpt>
      <trkpt lat="43.61414" lon="1.39719">
        <ele>150.6616973877</ele>
        <time>2020-05-31T18:11:55.113Z</time>
      </trkpt>
      <trkpt lat="43.6141" lon="1.3972">
        <ele>150.7456817627</ele>
        <time>2020-05-31T18:11:55.415Z</time>
      </trkpt>
      <trkpt lat="43.61406" lon="1.39722">
        <ele>150.81767272949</ele>
        <time>2020-05-31T18:11:55.718Z</time>
      </trkpt>
      <trkpt lat="43.61401" lon="1.3973">
        <ele>150.8416595459</ele>
        <time>2020-05-31T18:11:56.022Z</time>
      </trkpt>
      <trkpt lat="43.61392" lon="1.39732">
        <ele>151.03807067871</ele>
        <time>2020-05-31T18:11:56.328Z</time>
      </trkpt>
      <trkpt lat="43.61379" lon="1.39728">
        <ele>151.39356994629</ele>
        <time>2020-05-31T18:11:56.636Z</time>
      </trkpt>
      <trkpt lat="43.61363" lon="1.3972">
        <ele>151.87348937988</ele>
        <time>2020-05-31T18:11:56.947Z</time>
      </trkpt>
      <trkpt lat="43.61348" lon="1.39715">
        <ele>152.34037780762</ele>
        <time>2020-05-31T18:11:57.260Z</time>
      </trkpt>
      <trkpt lat="43.61332" lon="1.39713">
        <ele>152.92488098145</ele>
        <time>2020-05-31T18:11:57.576Z</time>
      </trkpt>
      <trkpt lat="43.61281" lon="1.39714">
        <ele>154.12467956543</ele>
        <time>2020-05-31T18:11:57.900Z</time>
      </trkpt>
      <trkpt lat="43.61174" lon="1.39718">
        <ele>151.49058532715</ele>
        <time>2020-05-31T18:11:58.241Z</time>
      </trkpt>
      <trkpt lat="43.61157" lon="1.39717">
        <ele>151.85266113281</ele>
        <time>2020-05-31T18:11:58.585Z</time>
      </trkpt>
      <trkpt lat="43.61141" lon="1.39717">
        <ele>152.2366027832</ele>
        <time>2020-05-31T18:11:58.931Z</time>
      </trkpt>
      <trkpt lat="43.61108" lon="1.39717">
        <ele>153.02847290039</ele>
        <time>2020-05-31T18:11:59.282Z</time>
      </trkpt>
      <trkpt lat="43.61025" lon="1.3972">
        <ele>154.84460449219</ele>
        <time>2020-05-31T18:11:59.647Z</time>
      </trkpt>
      <trkpt lat="43.60971" lon="1.39723">
        <ele>155.72622680664</ele>
        <time>2020-05-31T18:12:00.020Z</time>
      </trkpt>
      <trkpt lat="43.60935" lon="1.39722">
        <ele>156.5357208252</ele>
        <time>2020-05-31T18:12:00.399Z</time>
      </trkpt>
      <trkpt lat="43.60935" lon="1.39721">
        <ele>156.48773193359</ele>
        <time>2020-05-31T18:12:00.778Z</time>
      </trkpt>
      <trkpt lat="43.60935" lon="1.3972">
        <ele>156.43974304199</ele>
        <time>2020-05-31T18:12:01.157Z</time>
      </trkpt>
      <trkpt lat="43.60935" lon="1.39718">
        <ele>156.34375</ele>
        <time>2020-05-31T18:12:01.537Z</time>
      </trkpt>
      <trkpt lat="43.60934" lon="1.39717">
        <ele>156.2837677002</ele>
        <time>2020-05-31T18:12:01.917Z</time>
      </trkpt>
      <trkpt lat="43.60933" lon="1.39714">
        <ele>156.1277923584</ele>
        <time>2020-05-31T18:12:02.297Z</time>
      </trkpt>
      <trkpt lat="43.6093" lon="1.39713">
        <ele>156.0438079834</ele>
        <time>2020-05-31T18:12:02.678Z</time>
      </trkpt>
      <trkpt lat="43.60926" lon="1.39714">
        <ele>156.0438079834</ele>
        <time>2020-05-31T18:12:03.059Z</time>
      </trkpt>
      <trkpt lat="43.60923" lon="1.3972">
        <ele>156.2957611084</ele>
        <time>2020-05-31T18:12:03.441Z</time>
      </trkpt>
      <trkpt lat="43.60923" lon="1.39721">
        <ele>156.34375</ele>
        <time>2020-05-31T18:12:03.823Z</time>
      </trkpt>
      <trkpt lat="43.60923" lon="1.39722">
        <ele>156.3917388916</ele>
        <time>2020-05-31T18:12:04.205Z</time>
      </trkpt>
      <trkpt lat="43.60871" lon="1.39727">
        <ele>156.0078125</ele>
        <time>2020-05-31T18:12:04.596Z</time>
      </trkpt>
      <trkpt lat="43.60811" lon="1.39728">
        <ele>154.88960266113</ele>
        <time>2020-05-31T18:12:04.996Z</time>
      </trkpt>
      <trkpt lat="43.60809" lon="1.39724">
        <ele>154.69763183594</ele>
        <time>2020-05-31T18:12:05.397Z</time>
      </trkpt>
      <trkpt lat="43.60805" lon="1.39716">
        <ele>154.31369018555</ele>
        <time>2020-05-31T18:12:05.799Z</time>
      </trkpt>
      <trkpt lat="43.608" lon="1.39711">
        <ele>154.01374816895</ele>
        <time>2020-05-31T18:12:06.202Z</time>
      </trkpt>
      <trkpt lat="43.60794" lon="1.39709">
        <ele>153.79777526855</ele>
        <time>2020-05-31T18:12:06.606Z</time>
      </trkpt>
      <trkpt lat="43.60783" lon="1.39713">
        <ele>153.67779541016</ele>
        <time>2020-05-31T18:12:07.012Z</time>
      </trkpt>
      <trkpt lat="43.60776" lon="1.39723">
        <ele>153.86976623535</ele>
        <time>2020-05-31T18:12:07.419Z</time>
      </trkpt>
      <trkpt lat="43.60771" lon="1.39743">
        <ele>154.45407104492</ele>
        <time>2020-05-31T18:12:07.829Z</time>
      </trkpt>
      <trkpt lat="43.60774" lon="1.39751">
        <ele>154.86199951172</ele>
        <time>2020-05-31T18:12:08.240Z</time>
      </trkpt>
      <trkpt lat="43.60777" lon="1.39754">
        <ele>155.14994812012</ele>
        <time>2020-05-31T18:12:08.652Z</time>
      </trkpt>
      <trkpt lat="43.60779" lon="1.39755">
        <ele>155.31791687012</ele>
        <time>2020-05-31T18:12:09.064Z</time>
      </trkpt>
      <trkpt lat="43.60767" lon="1.39783">
        <ele>155.23268127441</ele>
        <time>2020-05-31T18:12:09.480Z</time>
      </trkpt>
      <trkpt lat="43.60709" lon="1.39913">
        <ele>154.02571105957</ele>
        <time>2020-05-31T18:12:09.913Z</time>
      </trkpt>
      <trkpt lat="43.6065" lon="1.40044">
        <ele>148.91343688965</ele>
        <time>2020-05-31T18:12:10.364Z</time>
      </trkpt>
      <trkpt lat="43.60594" lon="1.40153">
        <ele>146.62855529785</ele>
        <time>2020-05-31T18:12:10.831Z</time>
      </trkpt>
      <trkpt lat="43.60592" lon="1.40154">
        <ele>146.54457092285</ele>
        <time>2020-05-31T18:12:11.298Z</time>
      </trkpt>
      <trkpt lat="43.6059" lon="1.40156">
        <ele>146.40060424805</ele>
        <time>2020-05-31T18:12:11.766Z</time>
      </trkpt>
      <trkpt lat="43.60586" lon="1.40161">
        <ele>146.05265808105</ele>
        <time>2020-05-31T18:12:12.234Z</time>
      </trkpt>
      <trkpt lat="43.60585" lon="1.40169">
        <ele>145.56074523926</ele>
        <time>2020-05-31T18:12:12.703Z</time>
      </trkpt>
      <trkpt lat="43.6057" lon="1.40207">
        <ele>143.44068908691</ele>
        <time>2020-05-31T18:12:13.177Z</time>
      </trkpt>
      <trkpt lat="43.60524" lon="1.40313">
        <ele>142.91604614258</ele>
        <time>2020-05-31T18:12:13.666Z</time>
      </trkpt>
      <trkpt lat="43.60513" lon="1.40337">
        <ele>142.41036987305</ele>
        <time>2020-05-31T18:12:14.158Z</time>
      </trkpt>
      <trkpt lat="43.60479" lon="1.40412">
        <ele>140.56433105469</ele>
        <time>2020-05-31T18:12:14.660Z</time>
      </trkpt>
      <trkpt lat="43.60452" lon="1.40466">
        <ele>138.58090209961</ele>
        <time>2020-05-31T18:12:15.170Z</time>
      </trkpt>
      <trkpt lat="43.60437" lon="1.40495">
        <ele>138.74882507324</ele>
        <time>2020-05-31T18:12:15.684Z</time>
      </trkpt>
      <trkpt lat="43.60406" lon="1.40571">
        <ele>142.23110961914</ele>
        <time>2020-05-31T18:12:16.208Z</time>
      </trkpt>
      <trkpt lat="43.60385" lon="1.40644">
        <ele>140.85133361816</ele>
        <time>2020-05-31T18:12:16.741Z</time>
      </trkpt>
      <trkpt lat="43.60334" lon="1.40752">
        <ele>139.57415771484</ele>
        <time>2020-05-31T18:12:17.289Z</time>
      </trkpt>
      <trkpt lat="43.60324" lon="1.40771">
        <ele>139.33419799805</ele>
        <time>2020-05-31T18:12:17.840Z</time>
      </trkpt>
      <trkpt lat="43.60306" lon="1.40826">
        <ele>139.3208770752</ele>
        <time>2020-05-31T18:12:18.398Z</time>
      </trkpt>
      <trkpt lat="43.60203" lon="1.41053">
        <ele>140.50773620605</ele>
        <time>2020-05-31T18:12:18.987Z</time>
      </trkpt>
      <trkpt lat="43.60089" lon="1.41309">
        <ele>142.0717010498</ele>
        <time>2020-05-31T18:12:19.611Z</time>
      </trkpt>
      <trkpt lat="43.60038" lon="1.41423">
        <ele>141.41610717773</ele>
        <time>2020-05-31T18:12:20.251Z</time>
      </trkpt>
      <trkpt lat="43.60038" lon="1.41423">
        <ele>141.41395568848</ele>
        <time>2020-05-31T18:12:20.891Z</time>
      </trkpt>
      <trkpt lat="43.60014" lon="1.41475">
        <ele>140.03076171875</ele>
        <time>2020-05-31T18:12:21.538Z</time>
      </trkpt>
      <trkpt lat="43.60002" lon="1.41499">
        <ele>140.59742736816</ele>
        <time>2020-05-31T18:12:22.188Z</time>
      </trkpt>
      <trkpt lat="43.59975" lon="1.41561">
        <ele>141.52020263672</ele>
        <time>2020-05-31T18:12:22.847Z</time>
      </trkpt>
      <trkpt lat="43.59925" lon="1.41682">
        <ele>142.87989807129</ele>
        <time>2020-05-31T18:12:23.522Z</time>
      </trkpt>
      <trkpt lat="43.59889" lon="1.41759">
        <ele>143.32438659668</ele>
        <time>2020-05-31T18:12:24.207Z</time>
      </trkpt>
      <trkpt lat="43.59827" lon="1.41895">
        <ele>142.45207214355</ele>
        <time>2020-05-31T18:12:24.911Z</time>
      </trkpt>
      <trkpt lat="43.59822" lon="1.41901">
        <ele>142.26010131836</ele>
        <time>2020-05-31T18:12:25.616Z</time>
      </trkpt>
      <trkpt lat="43.59786" lon="1.41983">
        <ele>141.22412109375</ele>
        <time>2020-05-31T18:12:26.332Z</time>
      </trkpt>
      <trkpt lat="43.59785" lon="1.41983">
        <ele>141.21211242676</ele>
        <time>2020-05-31T18:12:27.048Z</time>
      </trkpt>
      <trkpt lat="43.59783" lon="1.41984">
        <ele>141.20011901855</ele>
        <time>2020-05-31T18:12:27.765Z</time>
      </trkpt>
      <trkpt lat="43.59772" lon="1.41981">
        <ele>141.04420471191</ele>
        <time>2020-05-31T18:12:28.484Z</time>
      </trkpt>
      <trkpt lat="43.59695" lon="1.41967">
        <ele>147.31703186035</ele>
        <time>2020-05-31T18:12:29.215Z</time>
      </trkpt>
      <trkpt lat="43.59627" lon="1.41956">
        <ele>149.04547119141</ele>
        <time>2020-05-31T18:12:29.957Z</time>
      </trkpt>
      <trkpt lat="43.59609" lon="1.41954">
        <ele>149.86134338379</ele>
        <time>2020-05-31T18:12:30.702Z</time>
      </trkpt>
      <trkpt lat="43.59586" lon="1.41944">
        <ele>148.79676818848</ele>
        <time>2020-05-31T18:12:31.451Z</time>
      </trkpt>
      <trkpt lat="43.59585" lon="1.41943">
        <ele>148.65280151367</ele>
        <time>2020-05-31T18:12:32.200Z</time>
      </trkpt>
      <trkpt lat="43.59582" lon="1.4194">
        <ele>148.22087097168</ele>
        <time>2020-05-31T18:12:32.950Z</time>
      </trkpt>
      <trkpt lat="43.59579" lon="1.41939">
        <ele>148.05290222168</ele>
        <time>2020-05-31T18:12:33.700Z</time>
      </trkpt>
      <trkpt lat="43.59573" lon="1.41942">
        <ele>148.37684631348</ele>
        <time>2020-05-31T18:12:34.451Z</time>
      </trkpt>
      <trkpt lat="43.59571" lon="1.41944">
        <ele>148.61680603027</ele>
        <time>2020-05-31T18:12:35.202Z</time>
      </trkpt>
      <trkpt lat="43.59571" lon="1.41945">
        <ele>148.74877929688</ele>
        <time>2020-05-31T18:12:35.954Z</time>
      </trkpt>
      <trkpt lat="43.5953" lon="1.41933">
        <ele>144.50228881836</ele>
        <time>2020-05-31T18:12:36.712Z</time>
      </trkpt>
      <trkpt lat="43.59526" lon="1.41932">
        <ele>144.06173706055</ele>
        <time>2020-05-31T18:12:37.471Z</time>
      </trkpt>
      <trkpt lat="43.59526" lon="1.41932">
        <ele>144.06137084961</ele>
        <time>2020-05-31T18:12:38.230Z</time>
      </trkpt>
      <trkpt lat="43.59525" lon="1.41931">
        <ele>143.89039611816</ele>
        <time>2020-05-31T18:12:38.989Z</time>
      </trkpt>
      <trkpt lat="43.59525" lon="1.41933">
        <ele>143.96238708496</ele>
        <time>2020-05-31T18:12:39.748Z</time>
      </trkpt>
      <trkpt lat="43.59521" lon="1.41933">
        <ele>143.53045654297</ele>
        <time>2020-05-31T18:12:40.508Z</time>
      </trkpt>
      <trkpt lat="43.59516" lon="1.41935">
        <ele>143.28082275391</ele>
        <time>2020-05-31T18:12:41.269Z</time>
      </trkpt>
      <trkpt lat="43.59498" lon="1.41933">
        <ele>142.99287414551</ele>
        <time>2020-05-31T18:12:42.033Z</time>
      </trkpt>
      <trkpt lat="43.59431" lon="1.41925">
        <ele>141.18846130371</ele>
        <time>2020-05-31T18:12:42.807Z</time>
      </trkpt>
      <trkpt lat="43.59419" lon="1.41923">
        <ele>141.7643737793</ele>
        <time>2020-05-31T18:12:43.583Z</time>
      </trkpt>
      <trkpt lat="43.59397" lon="1.4192">
        <ele>142.82019042969</ele>
        <time>2020-05-31T18:12:44.363Z</time>
      </trkpt>
      <trkpt lat="43.5939" lon="1.41919">
        <ele>143.15614318848</ele>
        <time>2020-05-31T18:12:45.144Z</time>
      </trkpt>
      <trkpt lat="43.59306" lon="1.41905">
        <ele>145</ele>
        <time>2020-05-31T18:12:45.939Z</time>
      </trkpt>
      <trkpt lat="43.59272" lon="1.41904">
        <ele>144.98110961914</ele>
        <time>2020-05-31T18:12:46.739Z</time>
      </trkpt>
      <trkpt lat="43.59247" lon="1.41902">
        <ele>143.94090270996</ele>
        <time>2020-05-31T18:12:47.543Z</time>
      </trkpt>
      <trkpt lat="43.59182" lon="1.41889">
        <ele>141.75389099121</ele>
        <time>2020-05-31T18:12:48.358Z</time>
      </trkpt>
      <trkpt lat="43.59163" lon="1.41888">
        <ele>141.38360595703</ele>
        <time>2020-05-31T18:12:49.176Z</time>
      </trkpt>
      <trkpt lat="43.59139" lon="1.41899">
        <ele>141</ele>
        <time>2020-05-31T18:12:49.998Z</time>
      </trkpt>
      <trkpt lat="43.59126" lon="1.41905">
        <ele>141</ele>
        <time>2020-05-31T18:12:50.822Z</time>
      </trkpt>
      <trkpt lat="43.5912" lon="1.41914">
        <ele>141</ele>
        <time>2020-05-31T18:12:51.647Z</time>
      </trkpt>
      <trkpt lat="43.59106" lon="1.41936">
        <ele>141</ele>
        <time>2020-05-31T18:12:52.476Z</time>
      </trkpt>
      <trkpt lat="43.59093" lon="1.41956">
        <ele>141.1009979248</ele>
        <time>2020-05-31T18:12:53.308Z</time>
      </trkpt>
      <trkpt lat="43.59091" lon="1.41959">
        <ele>141.12643432617</ele>
        <time>2020-05-31T18:12:54.140Z</time>
      </trkpt>
      <trkpt lat="43.59115" lon="1.41921">
        <ele>141</ele>
        <time>2020-05-31T18:12:54.978Z</time>
      </trkpt>
      <trkpt lat="43.59121" lon="1.41933">
        <ele>141</ele>
        <time>2020-05-31T18:12:55.818Z</time>
      </trkpt>
      <trkpt lat="43.59123" lon="1.41936">
        <ele>141</ele>
        <time>2020-05-31T18:12:56.658Z</time>
      </trkpt>
      <trkpt lat="43.59117" lon="1.41943">
        <ele>141</ele>
        <time>2020-05-31T18:12:57.500Z</time>
      </trkpt>
      <trkpt lat="43.59076" lon="1.42005">
        <ele>142.50152587891</ele>
        <time>2020-05-31T18:12:58.351Z</time>
      </trkpt>
      <trkpt lat="43.59062" lon="1.42029">
        <ele>143.46136474609</ele>
        <time>2020-05-31T18:12:59.206Z</time>
      </trkpt>
      <trkpt lat="43.59024" lon="1.42084">
        <ele>145.41313171387</ele>
        <time>2020-05-31T18:13:00.070Z</time>
      </trkpt>
      <trkpt lat="43.58951" lon="1.42198">
        <ele>144</ele>
        <time>2020-05-31T18:13:00.951Z</time>
      </trkpt>
      <trkpt lat="43.58928" lon="1.42239">
        <ele>143.8331451416</ele>
        <time>2020-05-31T18:13:01.838Z</time>
      </trkpt>
      <trkpt lat="43.58923" lon="1.42249">
        <ele>143.5931854248</ele>
        <time>2020-05-31T18:13:02.727Z</time>
      </trkpt>
      <trkpt lat="43.58876" lon="1.42322">
        <ele>141.29399108887</ele>
        <time>2020-05-31T18:13:03.627Z</time>
      </trkpt>
      <trkpt lat="43.58865" lon="1.42339">
        <ele>141.16201782227</ele>
        <time>2020-05-31T18:13:04.530Z</time>
      </trkpt>
      <trkpt lat="43.58835" lon="1.42387">
        <ele>141.25497436523</ele>
        <time>2020-05-31T18:13:05.440Z</time>
      </trkpt>
      <trkpt lat="43.5879" lon="1.42454">
        <ele>143</ele>
        <time>2020-05-31T18:13:06.361Z</time>
      </trkpt>
      <trkpt lat="43.58776" lon="1.42473">
        <ele>143</ele>
        <time>2020-05-31T18:13:07.285Z</time>
      </trkpt>
      <trkpt lat="43.58753" lon="1.42504">
        <ele>143.62641906738</ele>
        <time>2020-05-31T18:13:08.214Z</time>
      </trkpt>
      <trkpt lat="43.58735" lon="1.4253">
        <ele>144.37872314453</ele>
        <time>2020-05-31T18:13:09.147Z</time>
      </trkpt>
      <trkpt lat="43.58733" lon="1.42533">
        <ele>144.29147338867</ele>
        <time>2020-05-31T18:13:10.081Z</time>
      </trkpt>
      <trkpt lat="43.58595" lon="1.42744">
        <ele>145.2198638916</ele>
        <time>2020-05-31T18:13:11.048Z</time>
      </trkpt>
      <trkpt lat="43.58586" lon="1.42771">
        <ele>145.65179443359</ele>
        <time>2020-05-31T18:13:12.018Z</time>
      </trkpt>
      <trkpt lat="43.58552" lon="1.42827">
        <ele>146.13824462891</ele>
        <time>2020-05-31T18:13:12.997Z</time>
      </trkpt>
      <trkpt lat="43.5854" lon="1.42846">
        <ele>145.84846496582</ele>
        <time>2020-05-31T18:13:13.979Z</time>
      </trkpt>
      <trkpt lat="43.58531" lon="1.42839">
        <ele>145.64450073242</ele>
        <time>2020-05-31T18:13:14.962Z</time>
      </trkpt>
      <trkpt lat="43.58522" lon="1.42831">
        <ele>145.48852539062</ele>
        <time>2020-05-31T18:13:15.947Z</time>
      </trkpt>
      <trkpt lat="43.58522" lon="1.4283">
        <ele>145.53652954102</ele>
        <time>2020-05-31T18:13:16.932Z</time>
      </trkpt>
      <trkpt lat="43.58522" lon="1.42827">
        <ele>145.68049621582</ele>
        <time>2020-05-31T18:13:17.917Z</time>
      </trkpt>
      <trkpt lat="43.5852" lon="1.4282">
        <ele>145.89646911621</ele>
        <time>2020-05-31T18:13:18.903Z</time>
      </trkpt>
      <trkpt lat="43.58517" lon="1.42816">
        <ele>146.00148010254</ele>
        <time>2020-05-31T18:13:19.890Z</time>
      </trkpt>
      <trkpt lat="43.58513" lon="1.42814">
        <ele>146.10484313965</ele>
        <time>2020-05-31T18:13:20.878Z</time>
      </trkpt>
      <trkpt lat="43.58508" lon="1.42814">
        <ele>146.22482299805</ele>
        <time>2020-05-31T18:13:21.866Z</time>
      </trkpt>
      <trkpt lat="43.58504" lon="1.42816">
        <ele>146.31343078613</ele>
        <time>2020-05-31T18:13:22.855Z</time>
      </trkpt>
      <trkpt lat="43.58499" lon="1.42827">
        <ele>145.90550231934</ele>
        <time>2020-05-31T18:13:23.846Z</time>
      </trkpt>
      <trkpt lat="43.585" lon="1.42833">
        <ele>145.59355163574</ele>
        <time>2020-05-31T18:13:24.837Z</time>
      </trkpt>
      <trkpt lat="43.58494" lon="1.42853">
        <ele>144.77767944336</ele>
        <time>2020-05-31T18:13:25.831Z</time>
      </trkpt>
      <trkpt lat="43.58485" lon="1.42907">
        <ele>145.07969665527</ele>
        <time>2020-05-31T18:13:26.831Z</time>
      </trkpt>
      <trkpt lat="43.58452" lon="1.43117">
        <ele>139</ele>
        <time>2020-05-31T18:13:27.856Z</time>
      </trkpt>
      <trkpt lat="43.58448" lon="1.43148">
        <ele>139</ele>
        <time>2020-05-31T18:13:28.885Z</time>
      </trkpt>
      <trkpt lat="43.58448" lon="1.43149">
        <ele>138.99678039551</ele>
        <time>2020-05-31T18:13:29.914Z</time>
      </trkpt>
      <trkpt lat="43.58447" lon="1.43148">
        <ele>139</ele>
        <time>2020-05-31T18:13:30.943Z</time>
      </trkpt>
      <trkpt lat="43.58448" lon="1.43149">
        <ele>138.99678039551</ele>
        <time>2020-05-31T18:13:31.972Z</time>
      </trkpt>
      <trkpt lat="43.58442" lon="1.43267">
        <ele>141.47883605957</ele>
        <time>2020-05-31T18:13:33.015Z</time>
      </trkpt>
      <trkpt lat="43.58423" lon="1.43675">
        <ele>139.51599121094</ele>
        <time>2020-05-31T18:13:34.106Z</time>
      </trkpt>
      <trkpt lat="43.5842" lon="1.4373">
        <ele>138.38174438477</ele>
        <time>2020-05-31T18:13:35.203Z</time>
      </trkpt>
      <trkpt lat="43.58412" lon="1.43932">
        <ele>145.26065063477</ele>
        <time>2020-05-31T18:13:36.324Z</time>
      </trkpt>
      <trkpt lat="43.58409" lon="1.43978">
        <ele>148.79180908203</ele>
        <time>2020-05-31T18:13:37.450Z</time>
      </trkpt>
      <trkpt lat="43.58399" lon="1.44184">
        <ele>149.29667663574</ele>
        <time>2020-05-31T18:13:38.600Z</time>
      </trkpt>
      <trkpt lat="43.58394" lon="1.44268">
        <ele>147.48904418945</ele>
        <time>2020-05-31T18:13:39.760Z</time>
      </trkpt>
      <trkpt lat="43.5839" lon="1.44386">
        <ele>148.37254333496</ele>
        <time>2020-05-31T18:13:40.934Z</time>
      </trkpt>
      <trkpt lat="43.5839" lon="1.44418">
        <ele>149</ele>
        <time>2020-05-31T18:13:42.111Z</time>
      </trkpt>
      <trkpt lat="43.58361" lon="1.44416">
        <ele>149.17610168457</ele>
        <time>2020-05-31T18:13:43.293Z</time>
      </trkpt>
      <trkpt lat="43.58291" lon="1.44411">
        <ele>148.56134033203</ele>
        <time>2020-05-31T18:13:44.486Z</time>
      </trkpt>
      <trkpt lat="43.58245" lon="1.44406">
        <ele>148.71968078613</ele>
        <time>2020-05-31T18:13:45.687Z</time>
      </trkpt>
      <trkpt lat="43.58217" lon="1.44407">
        <ele>149.41555786133</ele>
        <time>2020-05-31T18:13:46.892Z</time>
      </trkpt>
      <trkpt lat="43.58169" lon="1.44415">
        <ele>149.81140136719</ele>
        <time>2020-05-31T18:13:48.105Z</time>
      </trkpt>
      <trkpt lat="43.58158" lon="1.44419">
        <ele>149.67942810059</ele>
        <time>2020-05-31T18:13:49.320Z</time>
      </trkpt>
      <trkpt lat="43.58116" lon="1.44445">
        <ele>149.92651367188</ele>
        <time>2020-05-31T18:13:50.542Z</time>
      </trkpt>
      <trkpt lat="43.5807" lon="1.44492">
        <ele>149.75588989258</ele>
        <time>2020-05-31T18:13:51.773Z</time>
      </trkpt>
      <trkpt lat="43.58009" lon="1.44554">
        <ele>148.85879516602</ele>
        <time>2020-05-31T18:13:53.016Z</time>
      </trkpt>
      <trkpt lat="43.57909" lon="1.44652">
        <ele>150</ele>
        <time>2020-05-31T18:13:54.279Z</time>
      </trkpt>
      <trkpt lat="43.57824" lon="1.44727">
        <ele>148</ele>
        <time>2020-05-31T18:13:55.558Z</time>
      </trkpt>
      <trkpt lat="43.578" lon="1.44748">
        <ele>148</ele>
        <time>2020-05-31T18:13:56.842Z</time>
      </trkpt>
      <trkpt lat="43.57746" lon="1.44798">
        <ele>148.25881958008</ele>
        <time>2020-05-31T18:13:58.136Z</time>
      </trkpt>
      <trkpt lat="43.57674" lon="1.44852">
        <ele>147.99600219727</ele>
        <time>2020-05-31T18:13:59.443Z</time>
      </trkpt>
      <trkpt lat="43.57593" lon="1.44923">
        <ele>148.38549804688</ele>
        <time>2020-05-31T18:14:00.766Z</time>
      </trkpt>
      <trkpt lat="43.5753" lon="1.44979">
        <ele>149</ele>
        <time>2020-05-31T18:14:02.101Z</time>
      </trkpt>
      <trkpt lat="43.57487" lon="1.45024">
        <ele>149.99571228027</ele>
        <time>2020-05-31T18:14:03.444Z</time>
      </trkpt>
      <trkpt lat="43.57458" lon="1.45055">
        <ele>149.56378173828</ele>
        <time>2020-05-31T18:14:04.793Z</time>
      </trkpt>
      <trkpt lat="43.57454" lon="1.45059">
        <ele>149.46566772461</ele>
        <time>2020-05-31T18:14:06.143Z</time>
      </trkpt>
      <trkpt lat="43.57379" lon="1.45139">
        <ele>149.08824157715</ele>
        <time>2020-05-31T18:14:07.508Z</time>
      </trkpt>
      <trkpt lat="43.57386" lon="1.45166">
        <ele>149.41697692871</ele>
        <time>2020-05-31T18:14:08.876Z</time>
      </trkpt>
      <trkpt lat="43.57389" lon="1.45178">
        <ele>149.45297241211</ele>
        <time>2020-05-31T18:14:10.246Z</time>
      </trkpt>
      <trkpt lat="43.57386" lon="1.45186">
        <ele>149.4660949707</ele>
        <time>2020-05-31T18:14:11.617Z</time>
      </trkpt>
      <trkpt lat="43.57381" lon="1.45204">
        <ele>149.9580078125</ele>
        <time>2020-05-31T18:14:12.990Z</time>
      </trkpt>
      <trkpt lat="43.5737" lon="1.45208">
        <ele>150.18597412109</ele>
        <time>2020-05-31T18:14:14.365Z</time>
      </trkpt>
      <trkpt lat="43.57345" lon="1.45217">
        <ele>150.626953125</ele>
        <time>2020-05-31T18:14:15.744Z</time>
      </trkpt>
      <trkpt lat="43.57331" lon="1.45222">
        <ele>150.39778137207</ele>
        <time>2020-05-31T18:14:17.125Z</time>
      </trkpt>
      <trkpt lat="43.57293" lon="1.45239">
        <ele>149.05833435059</ele>
        <time>2020-05-31T18:14:18.513Z</time>
      </trkpt>
      <trkpt lat="43.5728" lon="1.45248">
        <ele>148.72592163086</ele>
        <time>2020-05-31T18:14:19.903Z</time>
      </trkpt>
      <trkpt lat="43.57256" lon="1.45268">
        <ele>148.4282989502</ele>
        <time>2020-05-31T18:14:21.298Z</time>
      </trkpt>
      <trkpt lat="43.57191" lon="1.45342">
        <ele>149.45468139648</ele>
        <time>2020-05-31T18:14:22.706Z</time>
      </trkpt>
      <trkpt lat="43.57139" lon="1.45394">
        <ele>150.57672119141</ele>
        <time>2020-05-31T18:14:24.124Z</time>
      </trkpt>
      <trkpt lat="43.56987" lon="1.45556">
        <ele>152.22988891602</ele>
        <time>2020-05-31T18:14:25.573Z</time>
      </trkpt>
      <trkpt lat="43.56934" lon="1.45613">
        <ele>154.01225280762</ele>
        <time>2020-05-31T18:14:27.033Z</time>
      </trkpt>
      <trkpt lat="43.56903" lon="1.45647">
        <ele>154.40544128418</ele>
        <time>2020-05-31T18:14:28.499Z</time>
      </trkpt>
      <trkpt lat="43.56854" lon="1.45695">
        <ele>154.41744995117</ele>
        <time>2020-05-31T18:14:29.975Z</time>
      </trkpt>
      <trkpt lat="43.56795" lon="1.45751">
        <ele>154.8942565918</ele>
        <time>2020-05-31T18:14:31.462Z</time>
      </trkpt>
      <trkpt lat="43.56715" lon="1.45823">
        <ele>155.7875213623</ele>
        <time>2020-05-31T18:14:32.965Z</time>
      </trkpt>
      <trkpt lat="43.56627" lon="1.45895">
        <ele>159.43090820312</ele>
        <time>2020-05-31T18:14:34.484Z</time>
      </trkpt>
      <trkpt lat="43.5661" lon="1.45909">
        <ele>159.77738952637</ele>
        <time>2020-05-31T18:14:36.006Z</time>
      </trkpt>
      <trkpt lat="43.56605" lon="1.45909">
        <ele>159.83737182617</ele>
        <time>2020-05-31T18:14:37.529Z</time>
      </trkpt>
      <trkpt lat="43.56603" lon="1.4591">
        <ele>159.84938049316</ele>
        <time>2020-05-31T18:14:39.052Z</time>
      </trkpt>
      <trkpt lat="43.56547" lon="1.45956">
        <ele>159.63067626953</ele>
        <time>2020-05-31T18:14:40.586Z</time>
      </trkpt>
      <trkpt lat="43.56512" lon="1.45987">
        <ele>158.13856506348</ele>
        <time>2020-05-31T18:14:42.126Z</time>
      </trkpt>
      <trkpt lat="43.56507" lon="1.45988">
        <ele>158.25854492188</ele>
        <time>2020-05-31T18:14:43.667Z</time>
      </trkpt>
      <trkpt lat="43.56504" lon="1.45989">
        <ele>158.33052062988</ele>
        <time>2020-05-31T18:14:45.209Z</time>
      </trkpt>
      <trkpt lat="43.56489" lon="1.46">
        <ele>158.69046020508</ele>
        <time>2020-05-31T18:14:46.753Z</time>
      </trkpt>
      <trkpt lat="43.56442" lon="1.46038">
        <ele>159.24530029297</ele>
        <time>2020-05-31T18:14:48.306Z</time>
      </trkpt>
      <trkpt lat="43.56408" lon="1.4606">
        <ele>158.97178649902</ele>
        <time>2020-05-31T18:14:49.865Z</time>
      </trkpt>
      <trkpt lat="43.5635" lon="1.46084">
        <ele>158.48329162598</ele>
        <time>2020-05-31T18:14:51.434Z</time>
      </trkpt>
      <trkpt lat="43.56343" lon="1.46078">
        <ele>158.67526245117</ele>
        <time>2020-05-31T18:14:53.004Z</time>
      </trkpt>
      <trkpt lat="43.56327" lon="1.46072">
        <ele>159.29916381836</ele>
        <time>2020-05-31T18:14:54.577Z</time>
      </trkpt>
      <trkpt lat="43.5631" lon="1.46061">
        <ele>160.0919342041</ele>
        <time>2020-05-31T18:14:56.153Z</time>
      </trkpt>
      <trkpt lat="43.56288" lon="1.46039">
        <ele>161.67565917969</ele>
        <time>2020-05-31T18:14:57.733Z</time>
      </trkpt>
      <trkpt lat="43.56259" lon="1.45996">
        <ele>164.21115112305</ele>
        <time>2020-05-31T18:14:59.320Z</time>
      </trkpt>
      <trkpt lat="43.56256" lon="1.45992">
        <ele>164.47999572754</ele>
        <time>2020-05-31T18:15:00.908Z</time>
      </trkpt>
      <trkpt lat="43.56145" lon="1.45826">
        <ele>169.1222076416</ele>
        <time>2020-05-31T18:15:02.522Z</time>
      </trkpt>
      <trkpt lat="43.56134" lon="1.45813">
        <ele>170.20120239258</ele>
        <time>2020-05-31T18:15:04.138Z</time>
      </trkpt>
      <trkpt lat="43.56126" lon="1.45807">
        <ele>171.04107666016</ele>
        <time>2020-05-31T18:15:05.756Z</time>
      </trkpt>
      <trkpt lat="43.56052" lon="1.45774">
        <ele>177.04107666016</ele>
        <time>2020-05-31T18:15:07.386Z</time>
      </trkpt>
      <trkpt lat="43.56042" lon="1.45765">
        <ele>178.08489990234</ele>
        <time>2020-05-31T18:15:09.018Z</time>
      </trkpt>
      <trkpt lat="43.55998" lon="1.45742">
        <ele>180.89898681641</ele>
        <time>2020-05-31T18:15:10.658Z</time>
      </trkpt>
      <trkpt lat="43.5598" lon="1.45739">
        <ele>181.2229309082</ele>
        <time>2020-05-31T18:15:12.300Z</time>
      </trkpt>
      <trkpt lat="43.55974" lon="1.45746">
        <ele>181.04295349121</ele>
        <time>2020-05-31T18:15:13.944Z</time>
      </trkpt>
      <trkpt lat="43.55957" lon="1.45758">
        <ele>180.88011169434</ele>
        <time>2020-05-31T18:15:15.591Z</time>
      </trkpt>
      <trkpt lat="43.55946" lon="1.45766">
        <ele>181.18006896973</ele>
        <time>2020-05-31T18:15:17.240Z</time>
      </trkpt>
      <trkpt lat="43.55935" lon="1.45769">
        <ele>181.54000854492</ele>
        <time>2020-05-31T18:15:18.891Z</time>
      </trkpt>
      <trkpt lat="43.55921" lon="1.45771">
        <ele>182.98051452637</ele>
        <time>2020-05-31T18:15:20.544Z</time>
      </trkpt>
      <trkpt lat="43.55908" lon="1.4577">
        <ele>184.39627075195</ele>
        <time>2020-05-31T18:15:22.199Z</time>
      </trkpt>
      <trkpt lat="43.55899" lon="1.45768">
        <ele>185.41955566406</ele>
        <time>2020-05-31T18:15:23.855Z</time>
      </trkpt>
      <trkpt lat="43.55899" lon="1.45768">
        <ele>185.42059326172</ele>
        <time>2020-05-31T18:15:25.511Z</time>
      </trkpt>
      <trkpt lat="43.55894" lon="1.45767">
        <ele>185.94401550293</ele>
        <time>2020-05-31T18:15:27.168Z</time>
      </trkpt>
      <trkpt lat="43.55867" lon="1.45757">
        <ele>189.28065490723</ele>
        <time>2020-05-31T18:15:28.830Z</time>
      </trkpt>
      <trkpt lat="43.55822" lon="1.45738">
        <ele>193.56416320801</ele>
        <time>2020-05-31T18:15:30.499Z</time>
      </trkpt>
      <trkpt lat="43.55752" lon="1.45715">
        <ele>198.30422973633</ele>
        <time>2020-05-31T18:15:32.180Z</time>
      </trkpt>
      <trkpt lat="43.55716" lon="1.45701">
        <ele>200.6805267334</ele>
        <time>2020-05-31T18:15:33.867Z</time>
      </trkpt>
      <trkpt lat="43.55704" lon="1.45697">
        <ele>201.54438781738</ele>
        <time>2020-05-31T18:15:35.556Z</time>
      </trkpt>
      <trkpt lat="43.5568" lon="1.45697">
        <ele>203.53831481934</ele>
        <time>2020-05-31T18:15:37.249Z</time>
      </trkpt>
      <trkpt lat="43.55634" lon="1.45697">
        <ele>205.3462677002</ele>
        <time>2020-05-31T18:15:38.949Z</time>
      </trkpt>
      <trkpt lat="43.55584" lon="1.45693">
        <ele>208.05889892578</ele>
        <time>2020-05-31T18:15:40.657Z</time>
      </trkpt>
      <trkpt lat="43.55551" lon="1.45693">
        <ele>208.52774047852</ele>
        <time>2020-05-31T18:15:42.370Z</time>
      </trkpt>
      <trkpt lat="43.55524" lon="1.45692">
        <ele>206.89601135254</ele>
        <time>2020-05-31T18:15:44.087Z</time>
      </trkpt>
      <trkpt lat="43.5551" lon="1.45687">
        <ele>206.9089050293</ele>
        <time>2020-05-31T18:15:45.807Z</time>
      </trkpt>
      <trkpt lat="43.55503" lon="1.45678">
        <ele>207.22085571289</ele>
        <time>2020-05-31T18:15:47.528Z</time>
      </trkpt>
      <trkpt lat="43.55495" lon="1.45673">
        <ele>207.64079284668</ele>
        <time>2020-05-31T18:15:49.251Z</time>
      </trkpt>
      <trkpt lat="43.5549" lon="1.45673">
        <ele>207.94073486328</ele>
        <time>2020-05-31T18:15:50.975Z</time>
      </trkpt>
      <trkpt lat="43.55485" lon="1.45676">
        <ele>208.27668762207</ele>
        <time>2020-05-31T18:15:52.699Z</time>
      </trkpt>
      <trkpt lat="43.55483" lon="1.45683">
        <ele>208.48065185547</ele>
        <time>2020-05-31T18:15:54.424Z</time>
      </trkpt>
      <trkpt lat="43.55482" lon="1.45685">
        <ele>208.56463623047</ele>
        <time>2020-05-31T18:15:56.150Z</time>
      </trkpt>
      <trkpt lat="43.55478" lon="1.4568">
        <ele>208.74459838867</ele>
        <time>2020-05-31T18:15:57.876Z</time>
      </trkpt>
      <trkpt lat="43.55472" lon="1.45675">
        <ele>209.04455566406</ele>
        <time>2020-05-31T18:15:59.604Z</time>
      </trkpt>
      <trkpt lat="43.55465" lon="1.45672">
        <ele>209.42849731445</ele>
        <time>2020-05-31T18:16:01.333Z</time>
      </trkpt>
      <trkpt lat="43.55455" lon="1.45668">
        <ele>209.98039245605</ele>
        <time>2020-05-31T18:16:03.063Z</time>
      </trkpt>
      <trkpt lat="43.55424" lon="1.45663">
        <ele>211.73861694336</ele>
        <time>2020-05-31T18:16:04.798Z</time>
      </trkpt>
      <trkpt lat="43.55407" lon="1.45663">
        <ele>212.96241760254</ele>
        <time>2020-05-31T18:16:06.536Z</time>
      </trkpt>
      <trkpt lat="43.55383" lon="1.45668">
        <ele>214.69012451172</ele>
        <time>2020-05-31T18:16:08.278Z</time>
      </trkpt>
      <trkpt lat="43.5533" lon="1.4568">
        <ele>219.34457397461</ele>
        <time>2020-05-31T18:16:10.029Z</time>
      </trkpt>
      <trkpt lat="43.55273" lon="1.45699">
        <ele>223.44607543945</ele>
        <time>2020-05-31T18:16:11.789Z</time>
      </trkpt>
      <trkpt lat="43.55243" lon="1.45709">
        <ele>224.70945739746</ele>
        <time>2020-05-31T18:16:13.554Z</time>
      </trkpt>
      <trkpt lat="43.55238" lon="1.45707">
        <ele>224.44549560547</ele>
        <time>2020-05-31T18:16:15.320Z</time>
      </trkpt>
      <trkpt lat="43.55207" lon="1.45716">
        <ele>224.34951782227</ele>
        <time>2020-05-31T18:16:17.091Z</time>
      </trkpt>
      <trkpt lat="43.55158" lon="1.45727">
        <ele>225.87617492676</ele>
        <time>2020-05-31T18:16:18.870Z</time>
      </trkpt>
      <trkpt lat="43.5514" lon="1.4573">
        <ele>226.56005859375</ele>
        <time>2020-05-31T18:16:20.652Z</time>
      </trkpt>
      <trkpt lat="43.55137" lon="1.45725">
        <ele>226.60804748535</ele>
        <time>2020-05-31T18:16:22.434Z</time>
      </trkpt>
      <trkpt lat="43.55133" lon="1.45726">
        <ele>226.76402282715</ele>
        <time>2020-05-31T18:16:24.217Z</time>
      </trkpt>
      <trkpt lat="43.55131" lon="1.4573">
        <ele>226.88400268555</ele>
        <time>2020-05-31T18:16:26.001Z</time>
      </trkpt>
      <trkpt lat="43.5513" lon="1.45732">
        <ele>226.94398498535</ele>
        <time>2020-05-31T18:16:27.785Z</time>
      </trkpt>
      <trkpt lat="43.5512" lon="1.45734">
        <ele>227.37724304199</ele>
        <time>2020-05-31T18:16:29.571Z</time>
      </trkpt>
      <trkpt lat="43.55045" lon="1.45748">
        <ele>230.49696350098</ele>
        <time>2020-05-31T18:16:31.369Z</time>
      </trkpt>
      <trkpt lat="43.55039" lon="1.45748">
        <ele>230.78492736816</ele>
        <time>2020-05-31T18:16:33.168Z</time>
      </trkpt>
      <trkpt lat="43.55006" lon="1.45747">
        <ele>232.89958190918</ele>
        <time>2020-05-31T18:16:34.972Z</time>
      </trkpt>
      <trkpt lat="43.54959" lon="1.45735">
        <ele>238.26268005371</ele>
        <time>2020-05-31T18:16:36.784Z</time>
      </trkpt>
      <trkpt lat="43.54948" lon="1.45728">
        <ele>239.39627075195</ele>
        <time>2020-05-31T18:16:38.597Z</time>
      </trkpt>
      <trkpt lat="43.54943" lon="1.45722">
        <ele>239.79220581055</ele>
        <time>2020-05-31T18:16:40.412Z</time>
      </trkpt>
      <trkpt lat="43.54916" lon="1.45663">
        <ele>240.41960144043</ele>
        <time>2020-05-31T18:16:42.235Z</time>
      </trkpt>
      <trkpt lat="43.54868" lon="1.45549">
        <ele>241.96995544434</ele>
        <time>2020-05-31T18:16:44.073Z</time>
      </trkpt>
      <trkpt lat="43.54865" lon="1.4554">
        <ele>242.14993286133</ele>
        <time>2020-05-31T18:16:45.912Z</time>
      </trkpt>
      <trkpt lat="43.54862" lon="1.45544">
        <ele>242.32989501953</ele>
        <time>2020-05-31T18:16:47.752Z</time>
      </trkpt>
      <trkpt lat="43.54856" lon="1.45552">
        <ele>242.72065734863</ele>
        <time>2020-05-31T18:16:49.593Z</time>
      </trkpt>
      <trkpt lat="43.54853" lon="1.45555">
        <ele>242.86981201172</ele>
        <time>2020-05-31T18:16:51.435Z</time>
      </trkpt>
      <trkpt lat="43.54788" lon="1.45657">
        <ele>242.87579345703</ele>
        <time>2020-05-31T18:16:53.292Z</time>
      </trkpt>
      <trkpt lat="43.54779" lon="1.45663">
        <ele>242.40068054199</ele>
        <time>2020-05-31T18:16:55.151Z</time>
      </trkpt>
      <trkpt lat="43.54771" lon="1.45663">
        <ele>242.0167388916</ele>
        <time>2020-05-31T18:16:57.011Z</time>
      </trkpt>
      <trkpt lat="43.5476" lon="1.45657">
        <ele>242.08251953125</ele>
        <time>2020-05-31T18:16:58.873Z</time>
      </trkpt>
      <trkpt lat="43.54745" lon="1.45642">
        <ele>242.01600646973</ele>
        <time>2020-05-31T18:17:00.738Z</time>
      </trkpt>
      <trkpt lat="43.54741" lon="1.45639">
        <ele>241.80004882812</ele>
        <time>2020-05-31T18:17:02.604Z</time>
      </trkpt>
      <trkpt lat="43.54734" lon="1.45637">
        <ele>241.50009155273</ele>
        <time>2020-05-31T18:17:04.471Z</time>
      </trkpt>
      <trkpt lat="43.54572" lon="1.45626">
        <ele>237.96380615234</ele>
        <time>2020-05-31T18:17:06.364Z</time>
      </trkpt>
      <trkpt lat="43.5456" lon="1.45623">
        <ele>237.53187561035</ele>
        <time>2020-05-31T18:17:08.259Z</time>
      </trkpt>
      <trkpt lat="43.54559" lon="1.4562">
        <ele>237.49588012695</ele>
        <time>2020-05-31T18:17:10.154Z</time>
      </trkpt>
      <trkpt lat="43.54555" lon="1.45616">
        <ele>237.35189819336</ele>
        <time>2020-05-31T18:17:12.050Z</time>
      </trkpt>
      <trkpt lat="43.54551" lon="1.45619">
        <ele>237.20793151855</ele>
        <time>2020-05-31T18:17:13.947Z</time>
      </trkpt>
      <trkpt lat="43.5455" lon="1.45621">
        <ele>237.17193603516</ele>
        <time>2020-05-31T18:17:15.844Z</time>
      </trkpt>
      <trkpt lat="43.54526" lon="1.45618">
        <ele>236.30807495117</ele>
        <time>2020-05-31T18:17:17.745Z</time>
      </trkpt>
      <trkpt lat="43.545" lon="1.45612">
        <ele>235.16297912598</ele>
        <time>2020-05-31T18:17:19.650Z</time>
      </trkpt>
      <trkpt lat="43.54486" lon="1.45607">
        <ele>234.49108886719</ele>
        <time>2020-05-31T18:17:21.558Z</time>
      </trkpt>
      <trkpt lat="43.54482" lon="1.45604">
        <ele>234.29911804199</ele>
        <time>2020-05-31T18:17:23.466Z</time>
      </trkpt>
      <trkpt lat="43.54461" lon="1.45595">
        <ele>233.26539611816</ele>
        <time>2020-05-31T18:17:25.378Z</time>
      </trkpt>
      <trkpt lat="43.54449" lon="1.45585">
        <ele>232.66549682617</ele>
        <time>2020-05-31T18:17:27.292Z</time>
      </trkpt>
      <trkpt lat="43.54443" lon="1.45575">
        <ele>232.42553710938</ele>
        <time>2020-05-31T18:17:29.208Z</time>
      </trkpt>
      <trkpt lat="43.54437" lon="1.45572">
        <ele>232.10159301758</ele>
        <time>2020-05-31T18:17:31.125Z</time>
      </trkpt>
      <trkpt lat="43.54431" lon="1.45573">
        <ele>231.87812805176</ele>
        <time>2020-05-31T18:17:33.043Z</time>
      </trkpt>
      <trkpt lat="43.54426" lon="1.45578">
        <ele>231.75814819336</ele>
        <time>2020-05-31T18:17:34.962Z</time>
      </trkpt>
      <trkpt lat="43.54424" lon="1.45584">
        <ele>231.66215515137</ele>
        <time>2020-05-31T18:17:36.881Z</time>
      </trkpt>
      <trkpt lat="43.54423" lon="1.45599">
        <ele>231.47018432617</ele>
        <time>2020-05-31T18:17:38.802Z</time>
      </trkpt>
      <trkpt lat="43.54426" lon="1.45606">
        <ele>231.42219543457</ele>
        <time>2020-05-31T18:17:40.724Z</time>
      </trkpt>
      <trkpt lat="43.5443" lon="1.4561">
        <ele>231.42219543457</ele>
        <time>2020-05-31T18:17:42.647Z</time>
      </trkpt>
      <trkpt lat="43.54433" lon="1.45611">
        <ele>231.44619750977</ele>
        <time>2020-05-31T18:17:44.570Z</time>
      </trkpt>
      <trkpt lat="43.54426" lon="1.45682">
        <ele>230.02069091797</ele>
        <time>2020-05-31T18:17:46.502Z</time>
      </trkpt>
      <trkpt lat="43.54409" lon="1.45708">
        <ele>228.99443054199</ele>
        <time>2020-05-31T18:17:48.438Z</time>
      </trkpt>
      <trkpt lat="43.544" lon="1.45732">
        <ele>228.5984954834</ele>
        <time>2020-05-31T18:17:50.377Z</time>
      </trkpt>
      <trkpt lat="43.54398" lon="1.45737">
        <ele>228.5145111084</ele>
        <time>2020-05-31T18:17:52.317Z</time>
      </trkpt>
      <trkpt lat="43.54397" lon="1.45743">
        <ele>228.4305267334</ele>
        <time>2020-05-31T18:17:54.257Z</time>
      </trkpt>
      <trkpt lat="43.54387" lon="1.4574">
        <ele>228.3465423584</ele>
        <time>2020-05-31T18:17:56.199Z</time>
      </trkpt>
      <trkpt lat="43.54384" lon="1.45739">
        <ele>228.3225402832</ele>
        <time>2020-05-31T18:17:58.141Z</time>
      </trkpt>
      <trkpt lat="43.54377" lon="1.45739">
        <ele>228.2385559082</ele>
        <time>2020-05-31T18:18:00.084Z</time>
      </trkpt>
      <trkpt lat="43.54372" lon="1.45742">
        <ele>228.142578125</ele>
        <time>2020-05-31T18:18:02.028Z</time>
      </trkpt>
      <trkpt lat="43.54365" lon="1.45751">
        <ele>227.85182189941</ele>
        <time>2020-05-31T18:18:03.974Z</time>
      </trkpt>
      <trkpt lat="43.54333" lon="1.45803">
        <ele>226.1630859375</ele>
        <time>2020-05-31T18:18:05.928Z</time>
      </trkpt>
      <trkpt lat="43.5433" lon="1.45816">
        <ele>225.99067687988</ele>
        <time>2020-05-31T18:18:07.883Z</time>
      </trkpt>
    </trkseg>
  </trk>
</gpx>